createdAt,value
2023-02-02T00:00:50.419Z,0
2023-02-02T00:01:50.383Z,0
2023-02-02T00:02:50.618Z,0
2023-02-02T00:03:50.709Z,0
2023-02-02T00:04:50.315Z,0
2023-02-02T00:05:50.290Z,0
2023-02-02T00:06:50.264Z,0
2023-02-02T00:07:50.236Z,0
2023-02-02T00:08:50.243Z,0
2023-02-02T00:09:50.189Z,0
2023-02-02T00:10:50.213Z,0
2023-02-02T00:11:50.173Z,0
2023-02-02T00:12:50.136Z,0
2023-02-02T00:13:50.093Z,0
2023-02-02T00:14:50.068Z,0
2023-02-02T00:15:50.230Z,0
2023-02-02T00:16:50.064Z,0
2023-02-02T00:17:49.995Z,0
2023-02-02T00:18:49.976Z,0
2023-02-02T00:19:49.950Z,0
2023-02-02T00:20:50.012Z,0
2023-02-02T00:21:50.185Z,0
2023-02-02T00:22:49.887Z,0
2023-02-02T00:23:49.608Z,0
2023-02-02T00:24:49.829Z,0
2023-02-02T00:25:50.012Z,0
2023-02-02T00:26:50.209Z,0
2023-02-02T00:27:49.771Z,0
2023-02-02T00:28:49.746Z,0
2023-02-02T00:29:49.707Z,0
2023-02-02T00:30:49.740Z,0
2023-02-02T00:31:50.284Z,0
2023-02-02T00:32:49.643Z,0
2023-02-02T00:33:49.631Z,0
2023-02-02T00:34:49.594Z,0
2023-02-02T00:35:49.545Z,0
2023-02-02T00:36:49.300Z,0
2023-02-02T00:37:49.544Z,0
2023-02-02T00:38:49.513Z,0
2023-02-02T00:39:49.470Z,0
2023-02-02T00:40:49.599Z,0
2023-02-02T00:41:49.463Z,0
2023-02-02T00:42:49.438Z,0
2023-02-02T00:43:49.379Z,0
2023-02-02T00:44:49.379Z,0
2023-02-02T00:45:49.556Z,0
2023-02-02T00:46:49.322Z,0
2023-02-02T00:47:49.425Z,0
2023-02-02T00:48:49.268Z,0
2023-02-02T00:49:49.290Z,0
2023-02-02T00:50:49.210Z,0
2023-02-02T00:51:49.174Z,0
2023-02-02T00:52:49.158Z,0
2023-02-02T00:53:49.121Z,0
2023-02-02T00:54:49.208Z,0
2023-02-02T00:55:49.093Z,0
2023-02-02T00:56:49.076Z,0
2023-02-02T00:57:49.220Z,0
2023-02-02T00:58:49.280Z,0
2023-02-02T00:59:48.998Z,0
2023-02-02T01:00:49.170Z,0
2023-02-02T01:01:49.233Z,0
2023-02-02T01:02:48.929Z,0
2023-02-02T01:03:49.040Z,0
2023-02-02T01:04:48.887Z,0
2023-02-02T01:05:48.872Z,0
2023-02-02T01:06:49.017Z,0
2023-02-02T01:07:48.807Z,0
2023-02-02T01:08:48.784Z,0
2023-02-02T01:09:48.783Z,0
2023-02-02T01:10:48.738Z,0
2023-02-02T01:11:48.747Z,0
2023-02-02T01:12:48.736Z,0
2023-02-02T01:13:48.666Z,0
2023-02-02T01:14:48.647Z,0
2023-02-02T01:15:48.684Z,0
2023-02-02T01:16:48.816Z,0
2023-02-02T01:17:48.590Z,0
2023-02-02T01:18:48.558Z,0
2023-02-02T01:19:48.738Z,0
2023-02-02T01:20:48.490Z,0
2023-02-02T01:21:48.470Z,0
2023-02-02T01:22:48.201Z,0
2023-02-02T01:23:48.187Z,0
2023-02-02T01:24:48.414Z,0
2023-02-02T01:25:48.369Z,0
2023-02-02T01:26:48.983Z,0
2023-02-02T01:27:50.363Z,0
2023-02-02T01:28:48.363Z,0
2023-02-02T01:29:48.277Z,0
2023-02-02T01:30:48.454Z,0
2023-02-02T01:31:48.556Z,0
2023-02-02T01:32:48.197Z,0
2023-02-02T01:33:48.245Z,0
2023-02-02T01:34:48.159Z,0
2023-02-02T01:35:48.255Z,0
2023-02-02T01:36:48.098Z,0
2023-02-02T01:37:47.855Z,0
2023-02-02T01:38:48.079Z,0
2023-02-02T01:39:48.026Z,0
2023-02-02T01:40:48.020Z,0
2023-02-02T01:41:47.982Z,0
2023-02-02T01:42:48.021Z,0
2023-02-02T01:43:48.042Z,0
2023-02-02T01:44:47.900Z,0
2023-02-02T01:45:48.060Z,0
2023-02-02T01:46:47.872Z,0
2023-02-02T01:47:47.852Z,0
2023-02-02T01:48:47.825Z,0
2023-02-02T01:49:47.563Z,0
2023-02-02T01:50:47.771Z,0
2023-02-02T01:51:47.894Z,0
2023-02-02T01:52:47.710Z,0
2023-02-02T01:53:47.681Z,0
2023-02-02T01:54:47.665Z,0
2023-02-02T01:55:47.645Z,0
2023-02-02T01:56:47.629Z,0
2023-02-02T01:57:47.591Z,0
2023-02-02T01:58:47.576Z,0
2023-02-02T01:59:47.551Z,0
2023-02-02T02:00:49.447Z,0
2023-02-02T02:01:47.509Z,0
2023-02-02T02:02:47.867Z,0
2023-02-02T02:03:47.454Z,0
2023-02-02T02:04:47.416Z,0
2023-02-02T02:05:47.487Z,0
2023-02-02T02:06:47.370Z,0
2023-02-02T02:07:47.485Z,0
2023-02-02T02:08:47.101Z,0
2023-02-02T02:09:47.297Z,0
2023-02-02T02:10:47.328Z,0
2023-02-02T02:11:47.258Z,0
2023-02-02T02:12:47.268Z,0
2023-02-02T02:13:47.227Z,0
2023-02-02T02:14:47.209Z,0
2023-02-02T02:15:47.161Z,0
2023-02-02T02:16:47.354Z,0
2023-02-02T02:17:47.101Z,0
2023-02-02T02:18:47.172Z,0
2023-02-02T02:19:47.085Z,0
2023-02-02T02:20:47.016Z,0
2023-02-02T02:21:47.001Z,0
2023-02-02T02:22:46.987Z,0
2023-02-02T02:23:47.179Z,0
2023-02-02T02:24:46.930Z,0
2023-02-02T02:25:46.916Z,0
2023-02-02T02:26:47.243Z,0
2023-02-02T02:27:46.883Z,0
2023-02-02T02:28:46.816Z,0
2023-02-02T02:29:46.798Z,0
2023-02-02T02:30:47.326Z,0
2023-02-02T02:31:47.433Z,0
2023-02-02T02:32:46.730Z,0
2023-02-02T02:33:46.710Z,0
2023-02-02T02:34:46.668Z,0
2023-02-02T02:35:46.657Z,0
2023-02-02T02:36:46.630Z,0
2023-02-02T02:37:46.639Z,0
2023-02-02T02:38:46.612Z,0
2023-02-02T02:39:46.710Z,0
2023-02-02T02:40:46.540Z,0
2023-02-02T02:41:46.499Z,0
2023-02-02T02:42:46.487Z,0
2023-02-02T02:43:46.455Z,0
2023-02-02T02:44:46.431Z,0
2023-02-02T02:45:46.446Z,0
2023-02-02T02:46:46.390Z,0
2023-02-02T02:47:46.380Z,0
2023-02-02T02:48:46.333Z,0
2023-02-02T02:49:46.305Z,0
2023-02-02T02:50:46.300Z,0
2023-02-02T02:51:46.369Z,0
2023-02-02T02:52:46.239Z,0
2023-02-02T02:53:46.206Z,0
2023-02-02T02:54:46.316Z,0
2023-02-02T02:55:46.466Z,0
2023-02-02T02:56:46.138Z,0
2023-02-02T02:57:46.134Z,0
2023-02-02T02:58:46.108Z,0
2023-02-02T02:59:46.092Z,0
2023-02-02T03:00:46.062Z,0
2023-02-02T03:01:46.342Z,0
2023-02-02T03:02:46.023Z,0
2023-02-02T03:03:45.968Z,0
2023-02-02T03:04:45.768Z,0
2023-02-02T03:05:45.934Z,0
2023-02-02T03:06:45.655Z,0
2023-02-02T03:07:45.869Z,0
2023-02-02T03:08:45.833Z,0
2023-02-02T03:09:45.841Z,0
2023-02-02T03:10:45.796Z,0
2023-02-02T03:11:45.879Z,0
2023-02-02T03:12:45.733Z,0
2023-02-02T03:13:45.750Z,0
2023-02-02T03:14:45.695Z,0
2023-02-02T03:15:45.900Z,0
2023-02-02T03:16:45.630Z,0
2023-02-02T03:17:45.635Z,0
2023-02-02T03:18:45.586Z,0
2023-02-02T03:19:45.594Z,0
2023-02-02T03:20:45.546Z,0
2023-02-02T03:21:45.509Z,0
2023-02-02T03:22:45.480Z,0
2023-02-02T03:23:45.473Z,0
2023-02-02T03:24:45.450Z,0
2023-02-02T03:25:45.223Z,0
2023-02-02T03:26:45.668Z,0
2023-02-02T03:27:45.529Z,0
2023-02-02T03:28:45.325Z,0
2023-02-02T03:29:45.296Z,0
2023-02-02T03:30:45.548Z,0
2023-02-02T03:31:45.501Z,0
2023-02-02T03:32:45.245Z,0
2023-02-02T03:33:45.301Z,0
2023-02-02T03:34:45.187Z,0
2023-02-02T03:35:45.160Z,0
2023-02-02T03:36:45.147Z,0
2023-02-02T03:37:45.133Z,0
2023-02-02T03:38:45.083Z,0
2023-02-02T03:39:45.071Z,0
2023-02-02T03:40:45.050Z,0
2023-02-02T03:41:45.028Z,0
2023-02-02T03:42:45.007Z,0
2023-02-02T03:43:45.101Z,0
2023-02-02T03:44:44.748Z,0
2023-02-02T03:45:44.963Z,0
2023-02-02T03:46:45.259Z,0
2023-02-02T03:47:44.888Z,0
2023-02-02T03:48:44.617Z,0
2023-02-02T03:49:44.839Z,0
2023-02-02T03:50:44.798Z,0
2023-02-02T03:51:44.760Z,0
2023-02-02T03:52:44.745Z,0
2023-02-02T03:53:44.750Z,0
2023-02-02T03:54:44.692Z,0
2023-02-02T03:55:44.691Z,0
2023-02-02T03:56:44.650Z,0
2023-02-02T03:57:44.627Z,0
2023-02-02T03:58:44.592Z,0
2023-02-02T03:59:44.756Z,0
2023-02-02T04:00:44.582Z,0
2023-02-02T04:01:44.775Z,0
2023-02-02T04:02:44.819Z,0
2023-02-02T04:03:44.493Z,0
2023-02-02T04:04:44.218Z,0
2023-02-02T04:05:44.418Z,0
2023-02-02T04:06:44.401Z,0
2023-02-02T04:07:44.363Z,0
2023-02-02T04:08:44.425Z,0
2023-02-02T04:09:44.337Z,0
2023-02-02T04:10:44.295Z,0
2023-02-02T04:11:46.423Z,0
2023-02-02T04:12:44.229Z,0
2023-02-02T04:13:44.203Z,0
2023-02-02T04:14:44.179Z,0
2023-02-02T04:15:44.280Z,0
2023-02-02T04:16:43.790Z,0
2023-02-02T04:17:44.121Z,0
2023-02-02T04:18:44.070Z,0
2023-02-02T04:19:44.070Z,0
2023-02-02T04:20:44.046Z,0
2023-02-02T04:21:44.024Z,0
2023-02-02T04:22:44.002Z,0
2023-02-02T04:23:44.030Z,0
2023-02-02T04:24:46.284Z,0
2023-02-02T04:25:43.908Z,0
2023-02-02T04:26:44.156Z,0
2023-02-02T04:27:43.907Z,0
2023-02-02T04:28:43.619Z,0
2023-02-02T04:29:43.797Z,0
2023-02-02T04:30:43.961Z,0
2023-02-02T04:31:44.073Z,0
2023-02-02T04:32:43.729Z,0
2023-02-02T04:33:43.694Z,0
2023-02-02T04:34:43.671Z,0
2023-02-02T04:35:43.712Z,0
2023-02-02T04:36:43.652Z,0
2023-02-02T04:37:43.620Z,0
2023-02-02T04:38:43.864Z,0
2023-02-02T04:39:43.553Z,0
2023-02-02T04:40:43.531Z,0
2023-02-02T04:41:43.494Z,0
2023-02-02T04:42:43.479Z,0
2023-02-02T04:43:43.452Z,0
2023-02-02T04:44:43.480Z,0
2023-02-02T04:45:43.665Z,0
2023-02-02T04:46:43.364Z,0
2023-02-02T04:47:43.453Z,0
2023-02-02T04:48:43.332Z,0
2023-02-02T04:49:43.271Z,0
2023-02-02T04:50:43.241Z,0
2023-02-02T04:51:43.240Z,0
2023-02-02T04:52:43.201Z,0
2023-02-02T04:53:43.173Z,0
2023-02-02T04:54:43.144Z,0
2023-02-02T04:55:43.137Z,0
2023-02-02T04:56:43.102Z,0
2023-02-02T04:57:43.078Z,0
2023-02-02T04:58:43.204Z,0
2023-02-02T04:59:46.622Z,0
2023-02-02T05:00:43.021Z,0
2023-02-02T05:01:42.963Z,0
2023-02-02T05:02:43.113Z,0
2023-02-02T05:03:43.063Z,0
2023-02-02T05:04:43.214Z,0
2023-02-02T05:05:42.867Z,0
2023-02-02T05:06:42.867Z,0
2023-02-02T05:07:42.818Z,0
2023-02-02T05:08:42.822Z,0
2023-02-02T05:09:42.797Z,0
2023-02-02T05:10:42.756Z,0
2023-02-02T05:11:42.706Z,0
2023-02-02T05:12:42.684Z,0
2023-02-02T05:13:42.672Z,0
2023-02-02T05:14:42.655Z,0
2023-02-02T05:15:42.613Z,0
2023-02-02T05:16:42.932Z,0
2023-02-02T05:17:42.594Z,0
2023-02-02T05:18:42.543Z,0
2023-02-02T05:19:42.692Z,0
2023-02-02T05:20:42.241Z,0
2023-02-02T05:21:42.466Z,0
2023-02-02T05:22:42.459Z,0
2023-02-02T05:23:42.238Z,0
2023-02-02T05:24:42.411Z,0
2023-02-02T05:25:42.372Z,0
2023-02-02T05:26:42.567Z,0
2023-02-02T05:27:42.062Z,0
2023-02-02T05:28:42.361Z,0
2023-02-02T05:29:42.272Z,0
2023-02-02T05:30:43.496Z,0
2023-02-02T05:31:42.534Z,0
2023-02-02T05:32:42.195Z,0
2023-02-02T05:33:42.206Z,0
2023-02-02T05:34:42.155Z,0
2023-02-02T05:35:42.221Z,0
2023-02-02T05:36:42.099Z,0
2023-02-02T05:37:42.071Z,0
2023-02-02T05:38:42.054Z,0
2023-02-02T05:39:42.006Z,0
2023-02-02T05:40:42.007Z,0
2023-02-02T05:41:41.957Z,0
2023-02-02T05:42:41.956Z,0
2023-02-02T05:43:41.940Z,0
2023-02-02T05:44:41.997Z,0
2023-02-02T05:45:42.091Z,0
2023-02-02T05:46:41.859Z,0
2023-02-02T05:47:41.835Z,0
2023-02-02T05:48:41.806Z,0
2023-02-02T05:49:41.768Z,0
2023-02-02T05:50:41.487Z,0
2023-02-02T05:51:41.893Z,0
2023-02-02T05:52:41.681Z,0
2023-02-02T05:53:41.689Z,0
2023-02-02T05:54:41.650Z,0
2023-02-02T05:55:41.360Z,0
2023-02-02T05:56:41.590Z,0
2023-02-02T05:57:41.625Z,0
2023-02-02T05:58:41.530Z,0
2023-02-02T05:59:41.531Z,0
2023-02-02T06:00:41.487Z,0
2023-02-02T06:01:41.485Z,0
2023-02-02T06:02:41.472Z,0
2023-02-02T06:03:42.143Z,0
2023-02-02T06:04:41.441Z,0
2023-02-02T06:05:41.356Z,0
2023-02-02T06:06:41.124Z,0
2023-02-02T06:07:41.456Z,0
2023-02-02T06:08:41.279Z,0
2023-02-02T06:09:41.293Z,0
2023-02-02T06:10:41.262Z,0
2023-02-02T06:11:41.215Z,0
2023-02-02T06:12:41.200Z,0
2023-02-02T06:13:41.161Z,0
2023-02-02T06:14:41.159Z,0
2023-02-02T06:15:41.427Z,0
2023-02-02T06:16:41.196Z,0
2023-02-02T06:17:41.129Z,0
2023-02-02T06:18:41.062Z,0
2023-02-02T06:19:41.036Z,0
2023-02-02T06:20:40.993Z,0
2023-02-02T06:21:40.990Z,0
2023-02-02T06:22:40.943Z,0
2023-02-02T06:23:41.097Z,0
2023-02-02T06:24:40.918Z,0
2023-02-02T06:25:40.897Z,0
2023-02-02T06:26:41.259Z,0
2023-02-02T06:27:40.823Z,0
2023-02-02T06:28:40.822Z,0
2023-02-02T06:29:40.539Z,0
2023-02-02T06:30:43.148Z,0
2023-02-02T06:31:41.814Z,0
2023-02-02T06:32:40.729Z,0
2023-02-02T06:33:40.678Z,0
2023-02-02T06:34:40.453Z,0
2023-02-02T06:35:40.633Z,0
2023-02-02T06:36:40.627Z,0
2023-02-02T06:37:40.592Z,0
2023-02-02T06:38:40.313Z,0
2023-02-02T06:39:40.640Z,0
2023-02-02T06:40:40.553Z,0
2023-02-02T06:41:40.533Z,0
2023-02-02T06:42:40.459Z,0
2023-02-02T06:43:40.425Z,0
2023-02-02T06:44:40.418Z,0
2023-02-02T06:45:40.459Z,0
2023-02-02T06:46:40.513Z,0
2023-02-02T06:47:40.185Z,0
2023-02-02T06:48:40.335Z,0
2023-02-02T06:49:40.098Z,0
2023-02-02T06:50:40.044Z,0
2023-02-02T06:51:40.279Z,0
2023-02-02T06:52:40.233Z,0
2023-02-02T06:53:40.211Z,0
2023-02-02T06:54:40.169Z,0
2023-02-02T06:55:40.310Z,0
2023-02-02T06:56:40.127Z,0
2023-02-02T06:57:40.090Z,0
2023-02-02T06:58:40.090Z,0
2023-02-02T06:59:40.045Z,0
2023-02-02T07:00:40.140Z,0
2023-02-02T07:01:40.256Z,0
2023-02-02T07:02:40.279Z,0
2023-02-02T07:03:40.102Z,0
2023-02-02T07:04:39.701Z,0
2023-02-02T07:05:40.850Z,0
2023-02-02T07:06:39.983Z,0
2023-02-02T07:07:39.623Z,0
2023-02-02T07:08:39.838Z,0
2023-02-02T07:09:39.813Z,0
2023-02-02T07:11:24.996Z,0
2023-02-02T07:11:48.377Z,0
2023-02-02T07:12:39.797Z,0
2023-02-02T07:13:39.954Z,0
2023-02-02T07:14:39.747Z,0
2023-02-02T07:15:39.729Z,0
2023-02-02T07:16:39.643Z,0
2023-02-02T07:17:39.381Z,0
2023-02-02T07:18:39.690Z,0
2023-02-02T07:19:39.576Z,0
2023-02-02T07:20:39.556Z,5
2023-02-02T07:21:39.603Z,5
2023-02-02T07:22:39.506Z,5
2023-02-02T07:23:39.471Z,5
2023-02-02T07:24:39.428Z,5
2023-02-02T07:25:39.407Z,5
2023-02-02T07:26:39.879Z,5
2023-02-02T07:27:39.388Z,5
2023-02-02T07:28:39.391Z,5
2023-02-02T07:29:39.537Z,5
2023-02-02T07:30:39.640Z,5
2023-02-02T07:31:43.255Z,5
2023-02-02T07:32:39.263Z,5
2023-02-02T07:33:38.988Z,5
2023-02-02T07:34:39.211Z,10
2023-02-02T07:35:38.944Z,5
2023-02-02T07:36:38.969Z,5
2023-02-02T07:37:42.046Z,5
2023-02-02T07:38:39.139Z,10
2023-02-02T07:39:39.103Z,10
2023-02-02T07:40:39.120Z,10
2023-02-02T07:41:38.791Z,10
2023-02-02T07:42:39.103Z,15
2023-02-02T07:43:39.025Z,15
2023-02-02T07:44:38.981Z,25
2023-02-02T07:45:39.323Z,20
2023-02-02T07:46:41.040Z,25
2023-02-02T07:47:38.939Z,25
2023-02-02T07:48:38.850Z,35
2023-02-02T07:49:38.858Z,35
2023-02-02T07:50:38.893Z,30
2023-02-02T07:51:45.652Z,40
2023-02-02T07:52:38.773Z,35
2023-02-02T07:53:38.960Z,35
2023-02-02T07:54:38.772Z,35
2023-02-02T07:55:39.515Z,30
2023-02-02T07:56:38.659Z,35
2023-02-02T07:57:38.633Z,40
2023-02-02T07:58:38.718Z,35
2023-02-02T07:59:41.693Z,35
2023-02-02T08:00:38.549Z,40
2023-02-02T08:01:38.854Z,45
2023-02-02T08:02:38.788Z,50
2023-02-02T08:03:38.269Z,45
2023-02-02T08:04:38.502Z,65
2023-02-02T08:05:38.415Z,45
2023-02-02T08:06:38.214Z,40
2023-02-02T08:07:38.402Z,35
2023-02-02T08:08:38.390Z,35
2023-02-02T08:09:38.424Z,40
2023-02-02T08:10:39.291Z,45
2023-02-02T08:11:38.095Z,45
2023-02-02T08:12:38.076Z,50
2023-02-02T08:13:38.047Z,50
2023-02-02T08:14:38.510Z,60
2023-02-02T08:15:38.243Z,50
2023-02-02T08:16:38.641Z,40
2023-02-02T08:17:38.156Z,45
2023-02-02T08:18:38.151Z,40
2023-02-02T08:19:37.855Z,30
2023-02-02T08:20:38.043Z,30
2023-02-02T08:21:38.078Z,30
2023-02-02T08:22:38.035Z,35
2023-02-02T08:23:38.014Z,40
2023-02-02T08:24:37.963Z,50
2023-02-02T08:25:37.732Z,60
2023-02-02T08:26:38.332Z,70
2023-02-02T08:27:40.208Z,55
2023-02-02T08:28:37.889Z,85
2023-02-02T08:29:37.898Z,70
2023-02-02T08:30:38.128Z,70
2023-02-02T08:31:38.218Z,65
2023-02-02T08:32:37.815Z,80
2023-02-02T08:33:39.621Z,70
2023-02-02T08:34:37.738Z,65
2023-02-02T08:35:37.696Z,75
2023-02-02T08:36:37.737Z,65
2023-02-02T08:37:37.662Z,85
2023-02-02T08:38:37.668Z,85
2023-02-02T08:39:36.957Z,85
2023-02-02T08:40:37.845Z,80
2023-02-02T08:41:37.367Z,100
2023-02-02T08:42:37.719Z,95
2023-02-02T08:43:37.765Z,110
2023-02-02T08:46:14.554Z,90
2023-02-02T08:47:25.516Z,95
2023-02-02T08:48:25.517Z,85
2023-02-02T08:49:24.424Z,70
2023-02-02T08:50:24.629Z,75
2023-02-02T08:51:24.588Z,75
2023-02-02T08:52:27.134Z,80
2023-02-02T08:53:24.150Z,70
2023-02-02T08:54:24.397Z,80
2023-02-02T08:55:24.466Z,85
2023-02-02T08:56:24.079Z,100
2023-02-02T08:57:24.285Z,125
2023-02-02T08:58:24.268Z,120
2023-02-02T08:59:24.254Z,85
2023-02-02T09:00:24.023Z,110
2023-02-02T09:01:25.136Z,95
2023-02-02T09:02:24.436Z,110
2023-02-02T09:03:24.179Z,125
2023-02-02T09:04:24.217Z,135
2023-02-02T09:05:24.413Z,90
2023-02-02T09:06:24.100Z,105
2023-02-02T09:07:25.914Z,130
2023-02-02T09:08:24.237Z,110
2023-02-02T09:09:24.008Z,105
2023-02-02T09:10:24.234Z,90
2023-02-02T09:11:23.963Z,85
2023-02-02T09:12:23.720Z,85
2023-02-02T09:13:25.733Z,85
2023-02-02T09:14:23.904Z,120
2023-02-02T09:15:24.549Z,135
2023-02-02T09:16:24.143Z,95
2023-02-02T09:17:23.917Z,105
2023-02-02T09:18:23.548Z,140
2023-02-02T09:19:23.795Z,150
2023-02-02T09:20:25.500Z,135
2023-02-02T09:21:23.720Z,110
2023-02-02T09:22:23.742Z,100
2023-02-02T09:23:23.687Z,95
2023-02-02T09:24:23.669Z,105
2023-02-02T09:25:24.010Z,120
2023-02-02T09:26:23.708Z,165
2023-02-02T09:27:23.570Z,175
2023-02-02T09:28:23.319Z,215
2023-02-02T09:29:23.583Z,205
2023-02-02T09:30:23.553Z,155
2023-02-02T09:31:23.541Z,125
2023-02-02T09:32:23.571Z,100
2023-02-02T09:33:23.337Z,95
2023-02-02T09:34:23.430Z,95
2023-02-02T09:35:23.963Z,160
2023-02-02T09:36:23.172Z,170
2023-02-02T09:37:23.347Z,165
2023-02-02T09:38:23.425Z,160
2023-02-02T09:39:23.165Z,155
2023-02-02T09:40:23.173Z,180
2023-02-02T09:41:23.248Z,195
2023-02-02T09:42:22.987Z,170
2023-02-02T09:43:23.216Z,120
2023-02-02T09:44:22.956Z,105
2023-02-02T09:45:23.272Z,80
2023-02-02T09:46:25.604Z,85
2023-02-02T09:47:23.489Z,80
2023-02-02T09:48:23.111Z,85
2023-02-02T09:49:23.138Z,80
2023-02-02T09:50:23.161Z,75
2023-02-02T09:51:23.029Z,65
2023-02-02T09:52:23.014Z,80
2023-02-02T09:53:23.045Z,85
2023-02-02T09:54:22.976Z,110
2023-02-02T09:55:22.757Z,105
2023-02-02T09:56:22.899Z,135
2023-02-02T09:57:22.915Z,185
2023-02-02T09:58:22.850Z,220
2023-02-02T09:59:31.587Z,250
2023-02-02T10:00:22.610Z,290
2023-02-02T10:01:23.683Z,280
2023-02-02T10:02:23.278Z,295
2023-02-02T10:03:22.745Z,235
2023-02-02T10:04:22.864Z,205
2023-02-02T10:05:23.167Z,195
2023-02-02T10:06:22.650Z,190
2023-02-02T10:07:22.692Z,160
2023-02-02T10:08:41.712Z,135
2023-02-02T10:09:22.471Z,135
2023-02-02T10:10:24.975Z,115
2023-02-02T10:11:22.425Z,105
2023-02-02T10:12:22.535Z,105
2023-02-02T10:13:22.545Z,100
2023-02-02T10:14:22.640Z,150
2023-02-02T10:15:22.137Z,160
2023-02-02T10:16:22.782Z,155
2023-02-02T10:17:22.380Z,155
2023-02-02T10:18:22.106Z,130
2023-02-02T10:19:22.099Z,120
2023-02-02T10:20:22.129Z,110
2023-02-02T10:21:22.434Z,110
2023-02-02T10:22:22.186Z,105
2023-02-02T10:23:22.081Z,115
2023-02-02T10:24:22.229Z,90
2023-02-02T10:25:22.209Z,100
2023-02-02T10:26:22.231Z,110
2023-02-02T10:27:22.161Z,95
2023-02-02T10:28:22.129Z,90
2023-02-02T10:29:22.107Z,75
2023-02-02T10:30:22.116Z,120
2023-02-02T10:31:22.866Z,130
2023-02-02T10:32:21.934Z,105
2023-02-02T10:33:21.979Z,95
2023-02-02T10:34:21.735Z,75
2023-02-02T10:35:25.392Z,85
2023-02-02T10:36:21.724Z,75
2023-02-02T10:37:22.047Z,80
2023-02-02T10:38:21.664Z,75
2023-02-02T10:39:21.940Z,105
2023-02-02T10:40:21.966Z,145
2023-02-02T10:41:21.475Z,150
2023-02-02T10:42:21.329Z,160
2023-02-02T10:43:21.784Z,165
2023-02-02T10:44:21.834Z,175
2023-02-02T10:45:21.589Z,230
2023-02-02T10:46:22.106Z,185
2023-02-02T10:47:21.443Z,155
2023-02-02T10:48:21.803Z,140
2023-02-02T10:49:21.681Z,95
2023-02-02T10:50:22.077Z,90
2023-02-02T10:51:21.617Z,95
2023-02-02T10:52:21.425Z,90
2023-02-02T10:53:21.675Z,110
2023-02-02T10:54:21.519Z,120
2023-02-02T10:55:21.518Z,95
2023-02-02T10:56:21.521Z,95
2023-02-02T10:57:21.212Z,100
2023-02-02T10:58:21.455Z,105
2023-02-02T10:59:21.411Z,85
2023-02-02T11:00:25.430Z,95
2023-02-02T11:01:21.467Z,80
2023-02-02T11:02:30.151Z,85
2023-02-02T11:03:21.397Z,95
2023-02-02T11:04:21.339Z,100
2023-02-02T11:05:21.025Z,90
2023-02-02T11:06:21.378Z,85
2023-02-02T11:07:21.216Z,80
2023-02-02T11:08:21.220Z,85
2023-02-02T11:09:23.376Z,95
2023-02-02T11:10:21.018Z,95
2023-02-02T11:11:21.199Z,85
2023-02-02T11:12:21.336Z,105
2023-02-02T11:13:21.090Z,105
2023-02-02T11:14:21.066Z,125
2023-02-02T11:15:21.030Z,140
2023-02-02T11:16:21.386Z,140
2023-02-02T11:17:20.987Z,140
2023-02-02T11:18:20.738Z,110
2023-02-02T11:19:20.943Z,125
2023-02-02T11:20:20.984Z,120
2023-02-02T11:21:20.788Z,140
2023-02-02T11:22:20.873Z,145
2023-02-02T11:23:20.879Z,140
2023-02-02T11:24:20.833Z,150
2023-02-02T11:25:20.935Z,175
2023-02-02T11:26:20.948Z,170
2023-02-02T11:27:20.842Z,190
2023-02-02T11:28:20.567Z,170
2023-02-02T11:29:20.748Z,190
2023-02-02T11:30:20.580Z,210
2023-02-02T11:31:21.432Z,160
2023-02-02T11:32:20.407Z,205
2023-02-02T11:33:20.621Z,200
2023-02-02T11:34:22.923Z,190
2023-02-02T11:35:20.643Z,205
2023-02-02T11:36:20.565Z,195
2023-02-02T11:37:20.669Z,230
2023-02-02T11:38:20.536Z,195
2023-02-02T11:39:20.590Z,235
2023-02-02T11:40:20.598Z,185
2023-02-02T11:41:20.629Z,210
2023-02-02T11:42:20.447Z,220
2023-02-02T11:43:20.561Z,210
2023-02-02T11:44:20.367Z,155
2023-02-02T11:45:20.427Z,170
2023-02-02T11:46:20.747Z,130
2023-02-02T11:47:20.312Z,115
2023-02-02T11:48:20.272Z,105
2023-02-02T11:49:20.272Z,105
2023-02-02T11:50:20.273Z,100
2023-02-02T11:51:21.034Z,115
2023-02-02T11:52:21.176Z,115
2023-02-02T11:53:19.916Z,145
2023-02-02T11:54:20.158Z,135
2023-02-02T11:55:20.123Z,105
2023-02-02T11:56:20.100Z,95
2023-02-02T11:57:20.205Z,95
2023-02-02T11:58:21.618Z,100
2023-02-02T11:59:19.810Z,95
2023-02-02T12:00:19.996Z,100
2023-02-02T12:01:19.975Z,115
2023-02-02T12:02:20.223Z,125
2023-02-02T12:03:20.553Z,120
2023-02-02T12:04:19.900Z,110
2023-02-02T12:05:19.955Z,115
2023-02-02T12:06:19.645Z,145
2023-02-02T12:07:19.846Z,130
2023-02-02T12:08:19.596Z,90
2023-02-02T12:09:19.833Z,95
2023-02-02T12:10:19.543Z,110
2023-02-02T12:11:19.774Z,105
2023-02-02T12:12:19.501Z,95
2023-02-02T12:13:19.847Z,100
2023-02-02T12:14:19.725Z,90
2023-02-02T12:15:19.483Z,105
2023-02-02T12:16:19.769Z,105
2023-02-02T12:17:19.681Z,95
2023-02-02T12:18:19.386Z,95
2023-02-02T12:19:19.585Z,95
2023-02-02T12:20:19.423Z,85
2023-02-02T12:21:19.569Z,90
2023-02-02T12:22:21.735Z,110
2023-02-02T12:23:19.572Z,100
2023-02-02T12:24:19.484Z,100
2023-02-02T12:25:19.251Z,85
2023-02-02T12:26:19.796Z,85
2023-02-02T12:27:19.408Z,75
2023-02-02T12:28:20.999Z,75
2023-02-02T12:29:19.495Z,80
2023-02-02T12:30:19.438Z,75
2023-02-02T12:31:20.022Z,70
2023-02-02T12:32:19.195Z,70
2023-02-02T12:33:19.259Z,55
2023-02-02T12:34:21.516Z,60
2023-02-02T12:35:18.978Z,65
2023-02-02T12:36:18.715Z,55
2023-02-02T12:37:19.171Z,60
2023-02-02T12:38:19.151Z,70
2023-02-02T12:39:19.177Z,75
2023-02-02T12:40:20.975Z,75
2023-02-02T12:41:19.103Z,75
2023-02-02T12:42:19.097Z,65
2023-02-02T12:43:19.048Z,70
2023-02-02T12:44:18.582Z,80
2023-02-02T12:45:19.124Z,95
2023-02-02T12:46:22.078Z,85
2023-02-02T12:47:18.989Z,80
2023-02-02T12:48:18.968Z,85
2023-02-02T12:49:18.666Z,85
2023-02-02T12:50:18.783Z,90
2023-02-02T12:51:18.836Z,95
2023-02-02T12:52:20.959Z,110
2023-02-02T12:53:22.728Z,100
2023-02-02T12:54:59.965Z,100
2023-02-02T12:55:18.843Z,100
2023-02-02T12:56:18.828Z,80
2023-02-02T12:57:18.441Z,80
2023-02-02T12:58:18.724Z,80
2023-02-02T12:59:18.629Z,85
2023-02-02T13:00:18.539Z,90
2023-02-02T13:01:18.984Z,100
2023-02-02T13:02:18.811Z,85
2023-02-02T13:03:18.534Z,90
2023-02-02T13:04:18.483Z,90
2023-02-02T13:05:18.475Z,85
2023-02-02T13:06:18.563Z,95
2023-02-02T13:07:18.372Z,100
2023-02-02T13:08:18.116Z,85
2023-02-02T13:09:20.724Z,100
2023-02-02T13:10:18.494Z,120
2023-02-02T13:11:18.276Z,100
2023-02-02T13:12:18.269Z,105
2023-02-02T13:13:18.258Z,105
2023-02-02T13:14:18.236Z,100
2023-02-02T13:15:18.192Z,95
2023-02-02T13:16:18.499Z,100
2023-02-02T13:17:18.206Z,115
2023-02-02T13:18:18.094Z,115
2023-02-02T13:19:18.071Z,115
2023-02-02T13:20:18.028Z,115
2023-02-02T13:21:17.991Z,120
2023-02-02T13:22:17.784Z,105
2023-02-02T13:23:17.695Z,95
2023-02-02T13:24:17.991Z,85
2023-02-02T13:25:17.672Z,90
2023-02-02T13:26:18.047Z,85
2023-02-02T13:27:17.731Z,100
2023-02-02T13:28:17.556Z,85
2023-02-02T13:29:17.539Z,90
2023-02-02T13:30:17.828Z,95
2023-02-02T13:31:18.461Z,80
2023-02-02T13:32:18.243Z,80
2023-02-02T13:33:19.157Z,80
2023-02-02T13:34:18.934Z,80
2023-02-02T13:35:17.420Z,70
2023-02-02T13:36:17.438Z,70
2023-02-02T13:37:19.580Z,65
2023-02-02T13:38:17.292Z,65
2023-02-02T13:39:17.490Z,70
2023-02-02T13:40:17.606Z,70
2023-02-02T13:41:17.806Z,65
2023-02-02T13:42:17.418Z,80
2023-02-02T13:43:17.166Z,80
2023-02-02T13:44:17.413Z,90
2023-02-02T13:45:17.374Z,90
2023-02-02T13:46:17.678Z,90
2023-02-02T13:47:17.323Z,85
2023-02-02T13:48:17.284Z,85
2023-02-02T13:49:17.444Z,90
2023-02-02T13:50:17.014Z,85
2023-02-02T13:51:17.016Z,85
2023-02-02T13:52:16.689Z,85
2023-02-02T13:53:17.174Z,80
2023-02-02T13:54:17.177Z,75
2023-02-02T13:55:17.131Z,70
2023-02-02T13:56:17.092Z,70
2023-02-02T13:57:17.097Z,80
2023-02-02T13:58:16.477Z,75
2023-02-02T13:59:16.735Z,70
2023-02-02T14:00:17.012Z,65
2023-02-02T14:01:17.316Z,65
2023-02-02T14:02:17.260Z,65
2023-02-02T14:03:16.886Z,75
2023-02-02T14:04:16.864Z,75
2023-02-02T14:05:16.983Z,70
2023-02-02T14:06:16.862Z,60
2023-02-02T14:07:16.652Z,55
2023-02-02T14:08:16.744Z,60
2023-02-02T14:09:16.723Z,60
2023-02-02T14:10:16.733Z,60
2023-02-02T14:11:16.680Z,65
2023-02-02T14:12:16.479Z,55
2023-02-02T14:13:16.612Z,55
2023-02-02T14:14:16.357Z,50
2023-02-02T14:15:16.593Z,50
2023-02-02T14:16:16.850Z,50
2023-02-02T14:17:16.524Z,65
2023-02-02T14:18:16.499Z,65
2023-02-02T14:19:16.439Z,65
2023-02-02T14:20:16.437Z,85
2023-02-02T14:21:16.523Z,85
2023-02-02T14:22:16.422Z,85
2023-02-02T14:23:16.354Z,100
2023-02-02T14:24:16.312Z,85
2023-02-02T14:25:16.267Z,110
2023-02-02T14:26:16.420Z,135
2023-02-02T14:27:16.686Z,155